sensor_id;sensor_type;location;lat;lon;timestamp;P1;durP1;ratioP1;P2;durP2;ratioP2
19919;SDS011;10122;50.074;19.920;2022-10-16T00:01:15;17.65;;;10.95;;
19919;SDS011;10122;50.074;19.920;2022-10-16T00:03:42;16.42;;;10.27;;
19919;SDS011;10122;50.074;19.920;2022-10-16T00:06:09;16.63;;;10.88;;
19919;SDS011;10122;50.074;19.920;2022-10-16T00:08:36;16.63;;;10.75;;
19919;SDS011;10122;50.074;19.920;2022-10-16T00:11:06;16.70;;;10.98;;
19919;SDS011;10122;50.074;19.920;2022-10-16T00:13:35;16.90;;;11.35;;
19919;SDS011;10122;50.074;19.920;2022-10-16T00:16:03;16.17;;;10.95;;
19919;SDS011;10122;50.074;19.920;2022-10-16T00:18:29;18.92;;;11.07;;
19919;SDS011;10122;50.074;19.920;2022-10-16T00:21:00;16.23;;;10.88;;
19919;SDS011;10122;50.074;19.920;2022-10-16T00:23:30;18.23;;;11.77;;
19919;SDS011;10122;50.074;19.920;2022-10-16T00:25:57;17.27;;;11.23;;
19919;SDS011;10122;50.074;19.920;2022-10-16T00:28:25;18.35;;;11.57;;
19919;SDS011;10122;50.074;19.920;2022-10-16T00:30:52;19.10;;;12.48;;
19919;SDS011;10122;50.074;19.920;2022-10-16T00:33:18;21.85;;;12.85;;
19919;SDS011;10122;50.074;19.920;2022-10-16T00:35:44;19.92;;;12.13;;
19919;SDS011;10122;50.074;19.920;2022-10-16T00:38:10;18.83;;;12.13;;
19919;SDS011;10122;50.074;19.920;2022-10-16T00:40:36;18.75;;;12.77;;
19919;SDS011;10122;50.074;19.920;2022-10-16T00:43:02;17.90;;;11.90;;
19919;SDS011;10122;50.074;19.920;2022-10-16T00:45:27;19.75;;;12.27;;
19919;SDS011;10122;50.074;19.920;2022-10-16T00:47:53;18.27;;;12.13;;
19919;SDS011;10122;50.074;19.920;2022-10-16T00:50:22;20.60;;;12.38;;
19919;SDS011;10122;50.074;19.920;2022-10-16T00:52:54;21.48;;;12.68;;
19919;SDS011;10122;50.074;19.920;2022-10-16T00:55:21;21.95;;;13.35;;
19919;SDS011;10122;50.074;19.920;2022-10-16T00:57:48;18.25;;;11.73;;
19919;SDS011;10122;50.074;19.920;2022-10-16T01:00:16;17.80;;;11.73;;
19919;SDS011;10122;50.074;19.920;2022-10-16T01:02:44;19.70;;;12.13;;
19919;SDS011;10122;50.074;19.920;2022-10-16T01:05:16;20.35;;;12.35;;
19919;SDS011;10122;50.074;19.920;2022-10-16T01:10:27;19.85;;;12.45;;
19919;SDS011;10122;50.074;19.920;2022-10-16T01:16:13;19.88;;;12.57;;
19919;SDS011;10122;50.074;19.920;2022-10-16T01:18:47;19.55;;;12.48;;
19919;SDS011;10122;50.074;19.920;2022-10-16T01:21:22;17.90;;;11.80;;
19919;SDS011;10122;50.074;19.920;2022-10-16T01:23:58;19.08;;;11.85;;
19919;SDS011;10122;50.074;19.920;2022-10-16T01:29:30;20.02;;;11.88;;
19919;SDS011;10122;50.074;19.920;2022-10-16T01:35:03;17.85;;;11.38;;
19919;SDS011;10122;50.074;19.920;2022-10-16T01:37:50;18.13;;;11.45;;
19919;SDS011;10122;50.074;19.920;2022-10-16T01:40:36;19.48;;;12.05;;
19919;SDS011;10122;50.074;19.920;2022-10-16T01:43:05;18.02;;;12.32;;
19919;SDS011;10122;50.074;19.920;2022-10-16T01:45:36;16.25;;;11.10;;
19919;SDS011;10122;50.074;19.920;2022-10-16T01:48:03;20.40;;;12.43;;
19919;SDS011;10122;50.074;19.920;2022-10-16T01:50:33;21.00;;;11.50;;
19919;SDS011;10122;50.074;19.920;2022-10-16T01:53:03;19.35;;;11.35;;
19919;SDS011;10122;50.074;19.920;2022-10-16T01:55:33;21.23;;;12.45;;
19919;SDS011;10122;50.074;19.920;2022-10-16T01:58:04;19.85;;;12.32;;
19919;SDS011;10122;50.074;19.920;2022-10-16T02:00:33;16.35;;;11.63;;
19919;SDS011;10122;50.074;19.920;2022-10-16T02:03:01;17.15;;;11.20;;
19919;SDS011;10122;50.074;19.920;2022-10-16T02:05:34;17.63;;;11.15;;
19919;SDS011;10122;50.074;19.920;2022-10-16T02:08:06;18.13;;;10.98;;
19919;SDS011;10122;50.074;19.920;2022-10-16T02:10:32;18.40;;;10.63;;
19919;SDS011;10122;50.074;19.920;2022-10-16T02:15:37;17.48;;;11.30;;
19919;SDS011;10122;50.074;19.920;2022-10-16T02:18:06;17.98;;;11.30;;
19919;SDS011;10122;50.074;19.920;2022-10-16T02:20:34;17.75;;;11.02;;
19919;SDS011;10122;50.074;19.920;2022-10-16T02:23:42;16.35;;;10.90;;
19919;SDS011;10122;50.074;19.920;2022-10-16T02:26:13;17.75;;;10.80;;
19919;SDS011;10122;50.074;19.920;2022-10-16T02:28:45;16.80;;;10.93;;
19919;SDS011;10122;50.074;19.920;2022-10-16T02:31:18;18.80;;;11.05;;
19919;SDS011;10122;50.074;19.920;2022-10-16T02:33:52;18.33;;;11.38;;
19919;SDS011;10122;50.074;19.920;2022-10-16T02:36:21;15.40;;;10.27;;
19919;SDS011;10122;50.074;19.920;2022-10-16T02:38:47;18.45;;;11.57;;
19919;SDS011;10122;50.074;19.920;2022-10-16T02:41:13;18.65;;;11.30;;
19919;SDS011;10122;50.074;19.920;2022-10-16T02:43:39;17.42;;;10.98;;
19919;SDS011;10122;50.074;19.920;2022-10-16T02:46:05;18.38;;;11.10;;
19919;SDS011;10122;50.074;19.920;2022-10-16T02:48:31;17.67;;;11.18;;
19919;SDS011;10122;50.074;19.920;2022-10-16T02:50:56;17.30;;;11.38;;
19919;SDS011;10122;50.074;19.920;2022-10-16T02:53:22;17.77;;;10.98;;
19919;SDS011;10122;50.074;19.920;2022-10-16T02:55:48;17.60;;;10.70;;
19919;SDS011;10122;50.074;19.920;2022-10-16T02:58:13;18.55;;;10.98;;
19919;SDS011;10122;50.074;19.920;2022-10-16T03:00:39;18.10;;;11.73;;
19919;SDS011;10122;50.074;19.920;2022-10-16T03:03:05;18.27;;;11.05;;
19919;SDS011;10122;50.074;19.920;2022-10-16T03:05:30;17.95;;;11.13;;
19919;SDS011;10122;50.074;19.920;2022-10-16T03:07:56;16.52;;;11.05;;
19919;SDS011;10122;50.074;19.920;2022-10-16T03:10:25;16.90;;;11.10;;
19919;SDS011;10122;50.074;19.920;2022-10-16T03:12:50;15.82;;;10.52;;
19919;SDS011;10122;50.074;19.920;2022-10-16T03:15:16;18.75;;;11.55;;
19919;SDS011;10122;50.074;19.920;2022-10-16T03:17:42;17.80;;;10.95;;
19919;SDS011;10122;50.074;19.920;2022-10-16T03:20:08;17.00;;;11.40;;
19919;SDS011;10122;50.074;19.920;2022-10-16T03:22:34;21.70;;;12.48;;
19919;SDS011;10122;50.074;19.920;2022-10-16T03:25:00;19.08;;;11.85;;
19919;SDS011;10122;50.074;19.920;2022-10-16T03:27:25;19.20;;;11.68;;
19919;SDS011;10122;50.074;19.920;2022-10-16T03:29:51;18.65;;;11.93;;
19919;SDS011;10122;50.074;19.920;2022-10-16T03:32:17;21.40;;;12.07;;
19919;SDS011;10122;50.074;19.920;2022-10-16T03:34:43;17.63;;;11.52;;
19919;SDS011;10122;50.074;19.920;2022-10-16T03:37:09;19.30;;;12.02;;
19919;SDS011;10122;50.074;19.920;2022-10-16T03:39:35;19.05;;;12.00;;
19919;SDS011;10122;50.074;19.920;2022-10-16T03:42:00;17.80;;;11.65;;
19919;SDS011;10122;50.074;19.920;2022-10-16T03:44:26;20.13;;;12.35;;
19919;SDS011;10122;50.074;19.920;2022-10-16T03:46:52;18.25;;;11.60;;
19919;SDS011;10122;50.074;19.920;2022-10-16T03:49:17;17.88;;;11.70;;
19919;SDS011;10122;50.074;19.920;2022-10-16T03:51:43;19.90;;;12.27;;
19919;SDS011;10122;50.074;19.920;2022-10-16T03:54:09;20.00;;;12.02;;
19919;SDS011;10122;50.074;19.920;2022-10-16T03:56:35;19.13;;;11.65;;
19919;SDS011;10122;50.074;19.920;2022-10-16T03:59:01;18.48;;;12.13;;
19919;SDS011;10122;50.074;19.920;2022-10-16T04:01:26;19.40;;;12.10;;
19919;SDS011;10122;50.074;19.920;2022-10-16T04:03:52;18.33;;;11.90;;
19919;SDS011;10122;50.074;19.920;2022-10-16T04:06:17;17.95;;;12.10;;
19919;SDS011;10122;50.074;19.920;2022-10-16T04:08:43;18.30;;;11.70;;
19919;SDS011;10122;50.074;19.920;2022-10-16T04:11:09;20.85;;;12.63;;
19919;SDS011;10122;50.074;19.920;2022-10-16T04:13:35;20.00;;;12.93;;
19919;SDS011;10122;50.074;19.920;2022-10-16T04:16:01;20.10;;;12.40;;
19919;SDS011;10122;50.074;19.920;2022-10-16T04:18:27;19.27;;;12.63;;
19919;SDS011;10122;50.074;19.920;2022-10-16T04:20:53;20.00;;;12.52;;
19919;SDS011;10122;50.074;19.920;2022-10-16T04:23:19;19.67;;;12.98;;
19919;SDS011;10122;50.074;19.920;2022-10-16T04:25:45;19.60;;;13.65;;
19919;SDS011;10122;50.074;19.920;2022-10-16T04:28:10;20.40;;;12.65;;
19919;SDS011;10122;50.074;19.920;2022-10-16T04:30:37;21.83;;;14.00;;
19919;SDS011;10122;50.074;19.920;2022-10-16T04:33:04;21.73;;;12.75;;
19919;SDS011;10122;50.074;19.920;2022-10-16T04:35:30;23.42;;;13.25;;
19919;SDS011;10122;50.074;19.920;2022-10-16T04:37:57;21.30;;;13.25;;
19919;SDS011;10122;50.074;19.920;2022-10-16T04:40:23;23.45;;;13.43;;
19919;SDS011;10122;50.074;19.920;2022-10-16T04:42:49;21.95;;;13.63;;
19919;SDS011;10122;50.074;19.920;2022-10-16T04:45:14;20.65;;;13.65;;
19919;SDS011;10122;50.074;19.920;2022-10-16T04:47:40;25.67;;;15.75;;
19919;SDS011;10122;50.074;19.920;2022-10-16T04:50:06;22.50;;;13.82;;
19919;SDS011;10122;50.074;19.920;2022-10-16T04:52:32;25.70;;;15.65;;
19919;SDS011;10122;50.074;19.920;2022-10-16T04:54:58;23.90;;;14.65;;
19919;SDS011;10122;50.074;19.920;2022-10-16T04:57:27;20.73;;;13.43;;
19919;SDS011;10122;50.074;19.920;2022-10-16T04:59:53;22.75;;;14.95;;
19919;SDS011;10122;50.074;19.920;2022-10-16T05:02:18;21.33;;;14.27;;
19919;SDS011;10122;50.074;19.920;2022-10-16T05:04:44;23.33;;;14.15;;
19919;SDS011;10122;50.074;19.920;2022-10-16T05:07:10;22.48;;;14.07;;
19919;SDS011;10122;50.074;19.920;2022-10-16T05:09:35;22.70;;;13.82;;
19919;SDS011;10122;50.074;19.920;2022-10-16T05:12:01;21.40;;;13.82;;
19919;SDS011;10122;50.074;19.920;2022-10-16T05:14:28;22.80;;;14.10;;
19919;SDS011;10122;50.074;19.920;2022-10-16T05:16:54;22.52;;;13.95;;
19919;SDS011;10122;50.074;19.920;2022-10-16T05:19:20;22.75;;;14.25;;
19919;SDS011;10122;50.074;19.920;2022-10-16T05:21:45;24.40;;;14.63;;
19919;SDS011;10122;50.074;19.920;2022-10-16T05:24:11;20.73;;;13.52;;
19919;SDS011;10122;50.074;19.920;2022-10-16T05:26:37;24.30;;;14.40;;
19919;SDS011;10122;50.074;19.920;2022-10-16T05:29:02;24.27;;;15.15;;
19919;SDS011;10122;50.074;19.920;2022-10-16T05:31:28;23.60;;;14.80;;
19919;SDS011;10122;50.074;19.920;2022-10-16T05:33:58;26.30;;;15.23;;
19919;SDS011;10122;50.074;19.920;2022-10-16T05:36:25;25.92;;;15.10;;
19919;SDS011;10122;50.074;19.920;2022-10-16T05:38:51;23.80;;;14.73;;
19919;SDS011;10122;50.074;19.920;2022-10-16T05:41:17;22.05;;;14.27;;
19919;SDS011;10122;50.074;19.920;2022-10-16T05:43:47;22.58;;;13.38;;
19919;SDS011;10122;50.074;19.920;2022-10-16T05:46:13;24.73;;;14.82;;
19919;SDS011;10122;50.074;19.920;2022-10-16T05:48:39;22.30;;;13.73;;
19919;SDS011;10122;50.074;19.920;2022-10-16T05:51:06;20.95;;;13.68;;
19919;SDS011;10122;50.074;19.920;2022-10-16T05:53:34;24.38;;;14.32;;
19919;SDS011;10122;50.074;19.920;2022-10-16T05:56:01;22.80;;;14.82;;
19919;SDS011;10122;50.074;19.920;2022-10-16T05:58:32;21.95;;;13.50;;
19919;SDS011;10122;50.074;19.920;2022-10-16T06:01:01;25.73;;;14.02;;
19919;SDS011;10122;50.074;19.920;2022-10-16T06:03:32;23.73;;;14.45;;
19919;SDS011;10122;50.074;19.920;2022-10-16T06:05:58;22.83;;;14.18;;
19919;SDS011;10122;50.074;19.920;2022-10-16T06:08:24;24.38;;;15.35;;
19919;SDS011;10122;50.074;19.920;2022-10-16T06:10:59;23.48;;;14.40;;
19919;SDS011;10122;50.074;19.920;2022-10-16T06:13:29;25.80;;;14.57;;
19919;SDS011;10122;50.074;19.920;2022-10-16T06:15:56;22.90;;;14.32;;
19919;SDS011;10122;50.074;19.920;2022-10-16T06:18:23;24.98;;;14.55;;
19919;SDS011;10122;50.074;19.920;2022-10-16T06:20:49;21.92;;;13.80;;
19919;SDS011;10122;50.074;19.920;2022-10-16T06:23:15;22.92;;;14.00;;
19919;SDS011;10122;50.074;19.920;2022-10-16T06:25:41;22.98;;;13.88;;
19919;SDS011;10122;50.074;19.920;2022-10-16T06:28:06;22.85;;;14.52;;
19919;SDS011;10122;50.074;19.920;2022-10-16T06:30:32;22.40;;;14.02;;
19919;SDS011;10122;50.074;19.920;2022-10-16T06:32:58;22.27;;;13.50;;
19919;SDS011;10122;50.074;19.920;2022-10-16T06:35:23;21.13;;;13.73;;
19919;SDS011;10122;50.074;19.920;2022-10-16T06:37:49;20.25;;;13.02;;
19919;SDS011;10122;50.074;19.920;2022-10-16T06:40:15;21.30;;;13.63;;
19919;SDS011;10122;50.074;19.920;2022-10-16T06:42:41;23.25;;;14.20;;
19919;SDS011;10122;50.074;19.920;2022-10-16T06:45:07;24.40;;;13.88;;
19919;SDS011;10122;50.074;19.920;2022-10-16T06:47:33;24.02;;;13.95;;
19919;SDS011;10122;50.074;19.920;2022-10-16T06:49:59;23.38;;;13.82;;
19919;SDS011;10122;50.074;19.920;2022-10-16T06:52:24;20.70;;;13.77;;
19919;SDS011;10122;50.074;19.920;2022-10-16T06:54:53;21.05;;;13.30;;
19919;SDS011;10122;50.074;19.920;2022-10-16T06:57:18;20.67;;;13.60;;
19919;SDS011;10122;50.074;19.920;2022-10-16T06:59:44;22.60;;;13.52;;
19919;SDS011;10122;50.074;19.920;2022-10-16T07:02:10;22.38;;;14.35;;
19919;SDS011;10122;50.074;19.920;2022-10-16T07:04:36;21.40;;;14.25;;
19919;SDS011;10122;50.074;19.920;2022-10-16T07:07:01;24.23;;;15.13;;
19919;SDS011;10122;50.074;19.920;2022-10-16T07:09:27;24.08;;;15.02;;
19919;SDS011;10122;50.074;19.920;2022-10-16T07:11:53;26.30;;;16.25;;
19919;SDS011;10122;50.074;19.920;2022-10-16T07:14:19;24.52;;;16.35;;
19919;SDS011;10122;50.074;19.920;2022-10-16T07:16:46;24.38;;;16.25;;
19919;SDS011;10122;50.074;19.920;2022-10-16T07:19:13;25.55;;;16.65;;
19919;SDS011;10122;50.074;19.920;2022-10-16T07:21:40;21.85;;;15.38;;
19919;SDS011;10122;50.074;19.920;2022-10-16T07:24:10;22.83;;;15.05;;
19919;SDS011;10122;50.074;19.920;2022-10-16T07:26:37;22.23;;;14.73;;
19919;SDS011;10122;50.074;19.920;2022-10-16T07:29:04;22.50;;;14.60;;
19919;SDS011;10122;50.074;19.920;2022-10-16T07:31:50;25.52;;;14.45;;
19919;SDS011;10122;50.074;19.920;2022-10-16T07:34:17;21.98;;;14.30;;
19919;SDS011;10122;50.074;19.920;2022-10-16T07:36:43;22.02;;;14.25;;
19919;SDS011;10122;50.074;19.920;2022-10-16T07:39:09;22.20;;;14.55;;
19919;SDS011;10122;50.074;19.920;2022-10-16T07:41:35;23.13;;;14.90;;
19919;SDS011;10122;50.074;19.920;2022-10-16T07:44:01;20.92;;;14.25;;
19919;SDS011;10122;50.074;19.920;2022-10-16T07:46:28;22.83;;;13.90;;
19919;SDS011;10122;50.074;19.920;2022-10-16T07:48:54;20.67;;;14.13;;
19919;SDS011;10122;50.074;19.920;2022-10-16T07:51:20;21.38;;;13.50;;
19919;SDS011;10122;50.074;19.920;2022-10-16T07:53:48;24.02;;;14.52;;
19919;SDS011;10122;50.074;19.920;2022-10-16T07:56:14;20.55;;;13.77;;
19919;SDS011;10122;50.074;19.920;2022-10-16T07:58:41;20.23;;;13.32;;
19919;SDS011;10122;50.074;19.920;2022-10-16T08:01:10;20.90;;;13.07;;
19919;SDS011;10122;50.074;19.920;2022-10-16T08:03:38;20.92;;;13.07;;
19919;SDS011;10122;50.074;19.920;2022-10-16T08:06:06;18.88;;;12.70;;
19919;SDS011;10122;50.074;19.920;2022-10-16T08:08:32;19.70;;;12.63;;
19919;SDS011;10122;50.074;19.920;2022-10-16T08:10:58;21.73;;;12.80;;
19919;SDS011;10122;50.074;19.920;2022-10-16T08:13:23;18.73;;;12.23;;
19919;SDS011;10122;50.074;19.920;2022-10-16T08:15:49;18.63;;;12.27;;
19919;SDS011;10122;50.074;19.920;2022-10-16T08:18:15;17.33;;;11.65;;
19919;SDS011;10122;50.074;19.920;2022-10-16T08:20:42;17.30;;;11.32;;
19919;SDS011;10122;50.074;19.920;2022-10-16T08:23:08;17.95;;;10.75;;
19919;SDS011;10122;50.074;19.920;2022-10-16T08:25:37;14.73;;;10.35;;
19919;SDS011;10122;50.074;19.920;2022-10-16T08:28:05;17.33;;;10.07;;
19919;SDS011;10122;50.074;19.920;2022-10-16T08:30:32;14.45;;;9.43;;
19919;SDS011;10122;50.074;19.920;2022-10-16T08:32:59;13.90;;;9.52;;
19919;SDS011;10122;50.074;19.920;2022-10-16T08:35:25;13.77;;;8.90;;
19919;SDS011;10122;50.074;19.920;2022-10-16T08:37:51;13.32;;;8.40;;
19919;SDS011;10122;50.074;19.920;2022-10-16T08:40:20;11.77;;;7.80;;
19919;SDS011;10122;50.074;19.920;2022-10-16T08:48:54;11.40;;;6.72;;
19919;SDS011;10122;50.074;19.920;2022-10-16T08:51:26;10.70;;;7.13;;
19919;SDS011;10122;50.074;19.920;2022-10-16T08:56:31;10.73;;;7.15;;
19919;SDS011;10122;50.074;19.920;2022-10-16T08:58:58;9.57;;;6.97;;
19919;SDS011;10122;50.074;19.920;2022-10-16T09:01:25;8.40;;;6.40;;
19919;SDS011;10122;50.074;19.920;2022-10-16T09:07:32;10.05;;;7.00;;
19919;SDS011;10122;50.074;19.920;2022-10-16T09:10:13;9.65;;;6.93;;
19919;SDS011;10122;50.074;19.920;2022-10-16T09:13:14;9.88;;;6.90;;
19919;SDS011;10122;50.074;19.920;2022-10-16T09:21:21;9.30;;;6.50;;
19919;SDS011;10122;50.074;19.920;2022-10-16T09:23:50;9.48;;;6.28;;
19919;SDS011;10122;50.074;19.920;2022-10-16T09:26:16;10.48;;;6.28;;
19919;SDS011;10122;50.074;19.920;2022-10-16T09:28:44;7.38;;;5.80;;
19919;SDS011;10122;50.074;19.920;2022-10-16T09:31:15;10.25;;;6.40;;
19919;SDS011;10122;50.074;19.920;2022-10-16T09:33:47;8.73;;;5.60;;
19919;SDS011;10122;50.074;19.920;2022-10-16T09:36:17;8.10;;;5.65;;
19919;SDS011;10122;50.074;19.920;2022-10-16T09:38:44;8.65;;;5.70;;
19919;SDS011;10122;50.074;19.920;2022-10-16T09:41:14;7.93;;;5.88;;
19919;SDS011;10122;50.074;19.920;2022-10-16T09:46:25;9.57;;;5.65;;
19919;SDS011;10122;50.074;19.920;2022-10-16T09:49:03;8.63;;;6.18;;
19919;SDS011;10122;50.074;19.920;2022-10-16T09:51:43;7.15;;;5.88;;
19919;SDS011;10122;50.074;19.920;2022-10-16T09:56:34;7.63;;;6.00;;
19919;SDS011;10122;50.074;19.920;2022-10-16T09:59:45;8.55;;;6.22;;
19919;SDS011;10122;50.074;19.920;2022-10-16T10:01:56;9.30;;;5.82;;
19919;SDS011;10122;50.074;19.920;2022-10-16T10:04:36;9.45;;;6.15;;
19919;SDS011;10122;50.074;19.920;2022-10-16T10:07:05;8.50;;;5.88;;
19919;SDS011;10122;50.074;19.920;2022-10-16T10:09:42;9.10;;;6.15;;
19919;SDS011;10122;50.074;19.920;2022-10-16T10:12:19;7.97;;;6.20;;
19919;SDS011;10122;50.074;19.920;2022-10-16T10:14:49;9.20;;;6.18;;
19919;SDS011;10122;50.074;19.920;2022-10-16T10:17:21;7.88;;;5.55;;
19919;SDS011;10122;50.074;19.920;2022-10-16T10:19:57;8.20;;;5.50;;
19919;SDS011;10122;50.074;19.920;2022-10-16T10:22:44;7.47;;;6.25;;
19919;SDS011;10122;50.074;19.920;2022-10-16T10:38:59;7.05;;;5.55;;
19919;SDS011;10122;50.074;19.920;2022-10-16T10:44:37;10.10;;;5.60;;
19919;SDS011;10122;50.074;19.920;2022-10-16T10:52:59;7.93;;;5.47;;
19919;SDS011;10122;50.074;19.920;2022-10-16T10:55:51;9.18;;;5.30;;
19919;SDS011;10122;50.074;19.920;2022-10-16T11:01:40;6.70;;;5.13;;
19919;SDS011;10122;50.074;19.920;2022-10-16T11:04:21;7.70;;;5.20;;
19919;SDS011;10122;50.074;19.920;2022-10-16T11:07:00;7.03;;;5.32;;
19919;SDS011;10122;50.074;19.920;2022-10-16T11:09:34;9.25;;;5.60;;
19919;SDS011;10122;50.074;19.920;2022-10-16T11:12:33;9.27;;;5.28;;
19919;SDS011;10122;50.074;19.920;2022-10-16T11:15:04;8.43;;;5.50;;
19919;SDS011;10122;50.074;19.920;2022-10-16T11:21:03;6.85;;;5.43;;
19919;SDS011;10122;50.074;19.920;2022-10-16T11:23:43;8.95;;;5.80;;
19919;SDS011;10122;50.074;19.920;2022-10-16T11:26:14;7.80;;;5.50;;
19919;SDS011;10122;50.074;19.920;2022-10-16T11:28:47;6.82;;;5.10;;
19919;SDS011;10122;50.074;19.920;2022-10-16T11:31:17;7.70;;;5.38;;
19919;SDS011;10122;50.074;19.920;2022-10-16T11:36:44;6.95;;;5.47;;
19919;SDS011;10122;50.074;19.920;2022-10-16T11:39:20;7.10;;;5.68;;
19919;SDS011;10122;50.074;19.920;2022-10-16T11:41:53;8.18;;;5.90;;
19919;SDS011;10122;50.074;19.920;2022-10-16T11:44:43;8.20;;;5.72;;
19919;SDS011;10122;50.074;19.920;2022-10-16T11:50:01;7.45;;;5.75;;
19919;SDS011;10122;50.074;19.920;2022-10-16T11:52:39;7.78;;;5.57;;
19919;SDS011;10122;50.074;19.920;2022-10-16T11:55:20;7.55;;;5.70;;
19919;SDS011;10122;50.074;19.920;2022-10-16T11:57:54;7.60;;;5.47;;
19919;SDS011;10122;50.074;19.920;2022-10-16T12:00:31;7.45;;;5.07;;
19919;SDS011;10122;50.074;19.920;2022-10-16T12:03:26;6.70;;;5.05;;
19919;SDS011;10122;50.074;19.920;2022-10-16T12:08:23;6.85;;;5.45;;
19919;SDS011;10122;50.074;19.920;2022-10-16T12:10:50;7.53;;;5.78;;
19919;SDS011;10122;50.074;19.920;2022-10-16T12:18:40;8.68;;;5.30;;
19919;SDS011;10122;50.074;19.920;2022-10-16T12:21:07;6.72;;;5.15;;
19919;SDS011;10122;50.074;19.920;2022-10-16T12:23:38;6.43;;;5.10;;
19919;SDS011;10122;50.074;19.920;2022-10-16T12:26:12;8.35;;;5.82;;
19919;SDS011;10122;50.074;19.920;2022-10-16T12:28:38;6.55;;;4.80;;
19919;SDS011;10122;50.074;19.920;2022-10-16T12:31:06;6.28;;;4.90;;
19919;SDS011;10122;50.074;19.920;2022-10-16T12:33:35;6.88;;;4.80;;
19919;SDS011;10122;50.074;19.920;2022-10-16T12:36:05;7.78;;;4.43;;
19919;SDS011;10122;50.074;19.920;2022-10-16T12:38:51;6.53;;;4.65;;
19919;SDS011;10122;50.074;19.920;2022-10-16T12:41:25;6.85;;;4.75;;
19919;SDS011;10122;50.074;19.920;2022-10-16T12:43:53;7.32;;;4.47;;
19919;SDS011;10122;50.074;19.920;2022-10-16T12:48:49;6.93;;;4.80;;
19919;SDS011;10122;50.074;19.920;2022-10-16T13:20:34;4.80;;;3.65;;
19919;SDS011;10122;50.074;19.920;2022-10-16T13:23:24;5.20;;;3.85;;
19919;SDS011;10122;50.074;19.920;2022-10-16T13:25:59;6.55;;;3.50;;
19919;SDS011;10122;50.074;19.920;2022-10-16T13:28:35;5.70;;;3.83;;
19919;SDS011;10122;50.074;19.920;2022-10-16T13:31:03;6.40;;;3.85;;
19919;SDS011;10122;50.074;19.920;2022-10-16T13:36:00;5.13;;;3.97;;
19919;SDS011;10122;50.074;19.920;2022-10-16T13:38:28;6.47;;;4.15;;
19919;SDS011;10122;50.074;19.920;2022-10-16T13:41:12;4.65;;;3.75;;
19919;SDS011;10122;50.074;19.920;2022-10-16T13:43:43;4.90;;;3.67;;
19919;SDS011;10122;50.074;19.920;2022-10-16T13:46:16;4.78;;;3.80;;
19919;SDS011;10122;50.074;19.920;2022-10-16T13:48:42;4.05;;;3.15;;
19919;SDS011;10122;50.074;19.920;2022-10-16T13:51:12;5.45;;;3.85;;
19919;SDS011;10122;50.074;19.920;2022-10-16T13:53:43;5.78;;;4.20;;
19919;SDS011;10122;50.074;19.920;2022-10-16T13:56:10;5.13;;;3.70;;
19919;SDS011;10122;50.074;19.920;2022-10-16T13:58:38;6.03;;;3.97;;
19919;SDS011;10122;50.074;19.920;2022-10-16T14:01:05;6.07;;;4.03;;
19919;SDS011;10122;50.074;19.920;2022-10-16T14:03:51;5.07;;;3.72;;
19919;SDS011;10122;50.074;19.920;2022-10-16T14:06:19;5.28;;;3.90;;
19919;SDS011;10122;50.074;19.920;2022-10-16T14:08:50;4.90;;;3.75;;
19919;SDS011;10122;50.074;19.920;2022-10-16T14:11:25;5.80;;;3.92;;
19919;SDS011;10122;50.074;19.920;2022-10-16T14:13:51;4.63;;;3.92;;
19919;SDS011;10122;50.074;19.920;2022-10-16T14:16:22;6.07;;;4.00;;
19919;SDS011;10122;50.074;19.920;2022-10-16T14:19:01;6.38;;;4.47;;
19919;SDS011;10122;50.074;19.920;2022-10-16T14:21:31;6.45;;;3.78;;
19919;SDS011;10122;50.074;19.920;2022-10-16T14:23:57;5.60;;;4.00;;
19919;SDS011;10122;50.074;19.920;2022-10-16T14:26:24;6.53;;;4.20;;
19919;SDS011;10122;50.074;19.920;2022-10-16T14:29:02;7.05;;;4.30;;
19919;SDS011;10122;50.074;19.920;2022-10-16T14:31:37;5.50;;;4.00;;
19919;SDS011;10122;50.074;19.920;2022-10-16T14:34:04;6.53;;;4.30;;
19919;SDS011;10122;50.074;19.920;2022-10-16T14:36:47;9.10;;;4.00;;
19919;SDS011;10122;50.074;19.920;2022-10-16T14:39:17;6.65;;;4.53;;
19919;SDS011;10122;50.074;19.920;2022-10-16T14:41:47;5.13;;;3.88;;
19919;SDS011;10122;50.074;19.920;2022-10-16T14:44:14;6.60;;;4.53;;
19919;SDS011;10122;50.074;19.920;2022-10-16T14:46:42;5.90;;;4.10;;
19919;SDS011;10122;50.074;19.920;2022-10-16T14:51:35;7.80;;;4.13;;
19919;SDS011;10122;50.074;19.920;2022-10-16T14:54:01;7.97;;;3.88;;
19919;SDS011;10122;50.074;19.920;2022-10-16T14:59:39;5.60;;;3.85;;
19919;SDS011;10122;50.074;19.920;2022-10-16T15:04:50;5.38;;;4.10;;
19919;SDS011;10122;50.074;19.920;2022-10-16T15:07:16;5.75;;;3.92;;
19919;SDS011;10122;50.074;19.920;2022-10-16T15:09:42;6.18;;;4.60;;
19919;SDS011;10122;50.074;19.920;2022-10-16T15:12:07;5.80;;;4.15;;
19919;SDS011;10122;50.074;19.920;2022-10-16T15:14:33;6.22;;;4.40;;
19919;SDS011;10122;50.074;19.920;2022-10-16T15:16:59;7.35;;;4.50;;
19919;SDS011;10122;50.074;19.920;2022-10-16T15:19:24;6.40;;;4.50;;
19919;SDS011;10122;50.074;19.920;2022-10-16T15:21:50;6.65;;;4.20;;
19919;SDS011;10122;50.074;19.920;2022-10-16T15:24:17;7.43;;;4.47;;
19919;SDS011;10122;50.074;19.920;2022-10-16T15:26:43;6.30;;;4.28;;
19919;SDS011;10122;50.074;19.920;2022-10-16T15:29:11;5.30;;;4.10;;
19919;SDS011;10122;50.074;19.920;2022-10-16T15:31:37;6.25;;;4.55;;
19919;SDS011;10122;50.074;19.920;2022-10-16T15:34:03;8.25;;;4.45;;
19919;SDS011;10122;50.074;19.920;2022-10-16T15:36:35;7.07;;;4.70;;
19919;SDS011;10122;50.074;19.920;2022-10-16T15:39:10;6.10;;;4.72;;
19919;SDS011;10122;50.074;19.920;2022-10-16T15:41:39;6.00;;;4.50;;
19919;SDS011;10122;50.074;19.920;2022-10-16T15:44:05;6.15;;;4.60;;
19919;SDS011;10122;50.074;19.920;2022-10-16T15:46:30;6.32;;;4.72;;
19919;SDS011;10122;50.074;19.920;2022-10-16T15:48:58;6.68;;;4.82;;
19919;SDS011;10122;50.074;19.920;2022-10-16T15:51:24;6.50;;;4.60;;
19919;SDS011;10122;50.074;19.920;2022-10-16T15:53:54;6.72;;;4.88;;
19919;SDS011;10122;50.074;19.920;2022-10-16T15:56:22;8.60;;;5.00;;
19919;SDS011;10122;50.074;19.920;2022-10-16T15:58:50;7.70;;;5.13;;
19919;SDS011;10122;50.074;19.920;2022-10-16T16:01:16;6.90;;;4.88;;
19919;SDS011;10122;50.074;19.920;2022-10-16T16:03:42;9.30;;;5.50;;
19919;SDS011;10122;50.074;19.920;2022-10-16T16:06:10;7.90;;;5.30;;
19919;SDS011;10122;50.074;19.920;2022-10-16T16:08:37;7.72;;;4.60;;
19919;SDS011;10122;50.074;19.920;2022-10-16T16:11:05;9.13;;;4.78;;
19919;SDS011;10122;50.074;19.920;2022-10-16T16:13:33;7.53;;;5.20;;
19919;SDS011;10122;50.074;19.920;2022-10-16T16:15:59;8.63;;;5.28;;
19919;SDS011;10122;50.074;19.920;2022-10-16T16:18:25;7.50;;;5.32;;
19919;SDS011;10122;50.074;19.920;2022-10-16T16:20:51;8.63;;;5.22;;
19919;SDS011;10122;50.074;19.920;2022-10-16T16:23:17;7.80;;;5.13;;
19919;SDS011;10122;50.074;19.920;2022-10-16T16:25:44;9.25;;;5.00;;
19919;SDS011;10122;50.074;19.920;2022-10-16T16:28:09;8.25;;;5.07;;
19919;SDS011;10122;50.074;19.920;2022-10-16T16:30:39;6.63;;;4.90;;
19919;SDS011;10122;50.074;19.920;2022-10-16T16:33:05;8.27;;;5.43;;